sensor_id;sensor_type;location;lat;lon;timestamp;temperature;humidity
25108;DHT22;13090;53.422;7.670;2022-10-22T00:04:32;15.90;90.10
25108;DHT22;13090;53.422;7.670;2022-10-22T00:09:37;15.80;90.20
25108;DHT22;13090;53.422;7.670;2022-10-22T00:14:39;15.80;90.20
25108;DHT22;13090;53.422;7.670;2022-10-22T00:19:43;15.80;90.20
25108;DHT22;13090;53.422;7.670;2022-10-22T00:24:45;15.80;90.10
25108;DHT22;13090;53.422;7.670;2022-10-22T00:29:48;15.70;90.10
25108;DHT22;13090;53.422;7.670;2022-10-22T00:34:51;15.60;90.10
25108;DHT22;13090;53.422;7.670;2022-10-22T00:39:54;15.50;90.10
25108;DHT22;13090;53.422;7.670;2022-10-22T00:45:04;15.50;90.20
25108;DHT22;13090;53.422;7.670;2022-10-22T00:50:12;15.40;90.30
25108;DHT22;13090;53.422;7.670;2022-10-22T00:55:15;15.30;90.10
25108;DHT22;13090;53.422;7.670;2022-10-22T01:00:18;15.20;90.10
25108;DHT22;13090;53.422;7.670;2022-10-22T01:05:25;15.20;90.20
25108;DHT22;13090;53.422;7.670;2022-10-22T01:15:54;15.10;90.50
25108;DHT22;13090;53.422;7.670;2022-10-22T01:21:09;15.00;90.50
25108;DHT22;13090;53.422;7.670;2022-10-22T01:26:20;15.00;90.30
25108;DHT22;13090;53.422;7.670;2022-10-22T01:31:30;14.90;90.30
25108;DHT22;13090;53.422;7.670;2022-10-22T01:36:36;14.90;90.40
25108;DHT22;13090;53.422;7.670;2022-10-22T01:41:39;14.80;90.40
25108;DHT22;13090;53.422;7.670;2022-10-22T01:46:47;14.90;90.40
25108;DHT22;13090;53.422;7.670;2022-10-22T01:51:58;14.90;90.50
25108;DHT22;13090;53.422;7.670;2022-10-22T01:57:08;14.90;90.50
25108;DHT22;13090;53.422;7.670;2022-10-22T02:02:27;14.90;90.50
25108;DHT22;13090;53.422;7.670;2022-10-22T02:07:33;14.90;90.60
25108;DHT22;13090;53.422;7.670;2022-10-22T02:12:39;14.80;90.40
25108;DHT22;13090;53.422;7.670;2022-10-22T02:17:45;14.80;90.40
25108;DHT22;13090;53.422;7.670;2022-10-22T02:22:49;14.80;90.40
25108;DHT22;13090;53.422;7.670;2022-10-22T02:27:57;14.80;90.40
25108;DHT22;13090;53.422;7.670;2022-10-22T02:33:08;14.80;90.50
25108;DHT22;13090;53.422;7.670;2022-10-22T02:38:13;14.80;90.60
25108;DHT22;13090;53.422;7.670;2022-10-22T02:43:17;14.70;90.40
25108;DHT22;13090;53.422;7.670;2022-10-22T02:48:21;14.70;90.50
25108;DHT22;13090;53.422;7.670;2022-10-22T02:53:23;14.80;90.50
25108;DHT22;13090;53.422;7.670;2022-10-22T02:58:26;14.80;90.50
25108;DHT22;13090;53.422;7.670;2022-10-22T03:03:30;14.80;90.50
25108;DHT22;13090;53.422;7.670;2022-10-22T03:08:32;14.80;90.50
25108;DHT22;13090;53.422;7.670;2022-10-22T03:13:34;14.80;90.50
25108;DHT22;13090;53.422;7.670;2022-10-22T03:18:38;14.80;90.60
25108;DHT22;13090;53.422;7.670;2022-10-22T03:23:41;14.80;90.60
25108;DHT22;13090;53.422;7.670;2022-10-22T03:28:44;14.80;90.60
25108;DHT22;13090;53.422;7.670;2022-10-22T03:33:49;14.80;90.60
25108;DHT22;13090;53.422;7.670;2022-10-22T03:38:51;14.80;90.70
25108;DHT22;13090;53.422;7.670;2022-10-22T03:43:54;14.80;90.70
25108;DHT22;13090;53.422;7.670;2022-10-22T03:48:58;14.80;90.70
25108;DHT22;13090;53.422;7.670;2022-10-22T03:54:00;14.80;90.70
25108;DHT22;13090;53.422;7.670;2022-10-22T03:59:03;14.80;90.70
25108;DHT22;13090;53.422;7.670;2022-10-22T04:04:07;14.80;90.60
25108;DHT22;13090;53.422;7.670;2022-10-22T04:09:09;14.80;90.70
25108;DHT22;13090;53.422;7.670;2022-10-22T04:14:12;14.80;90.60
25108;DHT22;13090;53.422;7.670;2022-10-22T04:19:16;14.80;90.60
25108;DHT22;13090;53.422;7.670;2022-10-22T04:24:18;14.70;90.60
25108;DHT22;13090;53.422;7.670;2022-10-22T04:29:20;14.70;90.60
25108;DHT22;13090;53.422;7.670;2022-10-22T04:34:26;14.70;90.60
25108;DHT22;13090;53.422;7.670;2022-10-22T04:39:29;14.70;90.70
25108;DHT22;13090;53.422;7.670;2022-10-22T04:44:31;14.70;90.70
25108;DHT22;13090;53.422;7.670;2022-10-22T04:49:35;14.60;90.60
25108;DHT22;13090;53.422;7.670;2022-10-22T04:54:37;14.60;90.70
25108;DHT22;13090;53.422;7.670;2022-10-22T04:59:39;14.50;90.60
25108;DHT22;13090;53.422;7.670;2022-10-22T05:04:44;14.50;90.60
25108;DHT22;13090;53.422;7.670;2022-10-22T05:09:46;14.50;90.60
25108;DHT22;13090;53.422;7.670;2022-10-22T05:14:49;14.40;90.50
25108;DHT22;13090;53.422;7.670;2022-10-22T05:19:52;14.40;90.60
25108;DHT22;13090;53.422;7.670;2022-10-22T05:24:55;14.30;90.50
25108;DHT22;13090;53.422;7.670;2022-10-22T05:29:57;14.20;90.60
25108;DHT22;13090;53.422;7.670;2022-10-22T05:35:00;14.20;91.10
25108;DHT22;13090;53.422;7.670;2022-10-22T05:40:04;14.10;90.80
25108;DHT22;13090;53.422;7.670;2022-10-22T05:45:27;14.10;90.90
25108;DHT22;13090;53.422;7.670;2022-10-22T05:50:30;14.20;90.90
25108;DHT22;13090;53.422;7.670;2022-10-22T05:55:35;14.10;90.90
25108;DHT22;13090;53.422;7.670;2022-10-22T06:00:37;14.20;90.90
25108;DHT22;13090;53.422;7.670;2022-10-22T06:05:41;14.10;91.10
25108;DHT22;13090;53.422;7.670;2022-10-22T06:10:44;14.10;90.90
25108;DHT22;13090;53.422;7.670;2022-10-22T06:15:46;14.20;91.00
25108;DHT22;13090;53.422;7.670;2022-10-22T06:20:50;14.20;91.00
25108;DHT22;13090;53.422;7.670;2022-10-22T06:25:56;14.20;91.00
25108;DHT22;13090;53.422;7.670;2022-10-22T06:30:59;14.20;91.10
25108;DHT22;13090;53.422;7.670;2022-10-22T06:36:08;14.30;91.20
25108;DHT22;13090;53.422;7.670;2022-10-22T06:41:12;14.40;91.40
25108;DHT22;13090;53.422;7.670;2022-10-22T06:46:18;14.70;91.70
25108;DHT22;13090;53.422;7.670;2022-10-22T06:51:22;15.20;91.80
25108;DHT22;13090;53.422;7.670;2022-10-22T06:56:27;15.80;91.70
25108;DHT22;13090;53.422;7.670;2022-10-22T07:01:31;16.40;91.30
25108;DHT22;13090;53.422;7.670;2022-10-22T07:06:36;16.70;90.70
25108;DHT22;13090;53.422;7.670;2022-10-22T07:11:40;17.00;90.00
25108;DHT22;13090;53.422;7.670;2022-10-22T07:16:43;17.00;88.70
25108;DHT22;13090;53.422;7.670;2022-10-22T07:21:47;16.80;88.30
25108;DHT22;13090;53.422;7.670;2022-10-22T07:26:49;16.50;88.40
25108;DHT22;13090;53.422;7.670;2022-10-22T07:31:52;16.30;88.60
25108;DHT22;13090;53.422;7.670;2022-10-22T07:36:55;16.20;89.00
25108;DHT22;13090;53.422;7.670;2022-10-22T07:41:58;16.10;89.30
25108;DHT22;13090;53.422;7.670;2022-10-22T07:47:00;16.00;89.90
25108;DHT22;13090;53.422;7.670;2022-10-22T07:52:06;16.10;90.40
25108;DHT22;13090;53.422;7.670;2022-10-22T07:57:08;16.50;91.00
25108;DHT22;13090;53.422;7.670;2022-10-22T08:02:11;17.30;91.30
25108;DHT22;13090;53.422;7.670;2022-10-22T08:07:14;18.10;90.50
25108;DHT22;13090;53.422;7.670;2022-10-22T08:12:17;18.50;89.10
25108;DHT22;13090;53.422;7.670;2022-10-22T08:17:20;18.80;89.60
25108;DHT22;13090;53.422;7.670;2022-10-22T08:22:24;19.50;90.10
25108;DHT22;13090;53.422;7.670;2022-10-22T08:27:26;20.40;89.30
25108;DHT22;13090;53.422;7.670;2022-10-22T08:32:28;21.10;88.10
25108;DHT22;13090;53.422;7.670;2022-10-22T08:37:32;21.80;85.80
25108;DHT22;13090;53.422;7.670;2022-10-22T08:43:02;22.10;82.80
25108;DHT22;13090;53.422;7.670;2022-10-22T08:48:15;22.20;80.00
25108;DHT22;13090;53.422;7.670;2022-10-22T08:53:26;22.20;80.60
25108;DHT22;13090;53.422;7.670;2022-10-22T08:58:37;22.20;80.80
25108;DHT22;13090;53.422;7.670;2022-10-22T09:03:47;22.40;80.60
25108;DHT22;13090;53.422;7.670;2022-10-22T09:08:54;22.60;80.60
25108;DHT22;13090;53.422;7.670;2022-10-22T09:13:59;23.10;81.10
25108;DHT22;13090;53.422;7.670;2022-10-22T09:19:15;23.40;79.60
25108;DHT22;13090;53.422;7.670;2022-10-22T09:24:24;23.40;76.00
25108;DHT22;13090;53.422;7.670;2022-10-22T09:29:34;23.30;78.30
25108;DHT22;13090;53.422;7.670;2022-10-22T09:34:37;22.90;75.80
25108;DHT22;13090;53.422;7.670;2022-10-22T09:39:44;22.40;76.10
25108;DHT22;13090;53.422;7.670;2022-10-22T09:44:52;22.00;76.60
25108;DHT22;13090;53.422;7.670;2022-10-22T09:50:06;21.70;77.00
25108;DHT22;13090;53.422;7.670;2022-10-22T09:55:17;21.50;77.90
25108;DHT22;13090;53.422;7.670;2022-10-22T10:00:20;21.40;77.70
25108;DHT22;13090;53.422;7.670;2022-10-22T10:05:28;21.20;78.30
25108;DHT22;13090;53.422;7.670;2022-10-22T10:10:37;21.10;78.50
25108;DHT22;13090;53.422;7.670;2022-10-22T10:15:47;21.10;78.20
25108;DHT22;13090;53.422;7.670;2022-10-22T10:20:59;21.00;79.00
25108;DHT22;13090;53.422;7.670;2022-10-22T10:26:12;21.30;80.40
25108;DHT22;13090;53.422;7.670;2022-10-22T10:31:22;21.70;80.20
25108;DHT22;13090;53.422;7.670;2022-10-22T10:36:35;22.10;77.50
25108;DHT22;13090;53.422;7.670;2022-10-22T10:41:50;22.40;76.80
25108;DHT22;13090;53.422;7.670;2022-10-22T10:46:58;22.40;76.10
25108;DHT22;13090;53.422;7.670;2022-10-22T10:52:11;22.30;75.20
25108;DHT22;13090;53.422;7.670;2022-10-22T10:57:31;22.10;75.50
25108;DHT22;13090;53.422;7.670;2022-10-22T11:08:36;22.10;77.30
25108;DHT22;13090;53.422;7.670;2022-10-22T11:13:44;22.40;77.70
25108;DHT22;13090;53.422;7.670;2022-10-22T11:18:54;22.60;77.00
25108;DHT22;13090;53.422;7.670;2022-10-22T11:24:04;22.70;76.10
25108;DHT22;13090;53.422;7.670;2022-10-22T11:29:16;22.70;75.70
25108;DHT22;13090;53.422;7.670;2022-10-22T11:34:24;22.60;74.90
25108;DHT22;13090;53.422;7.670;2022-10-22T11:39:41;22.40;75.00
25108;DHT22;13090;53.422;7.670;2022-10-22T11:44:59;22.10;74.30
25108;DHT22;13090;53.422;7.670;2022-10-22T11:50:18;21.80;74.50
25108;DHT22;13090;53.422;7.670;2022-10-22T11:55:41;21.60;75.80
25108;DHT22;13090;53.422;7.670;2022-10-22T12:00:48;21.40;75.80
25108;DHT22;13090;53.422;7.670;2022-10-22T12:06:14;21.20;76.20
25108;DHT22;13090;53.422;7.670;2022-10-22T12:11:21;21.00;76.50
25108;DHT22;13090;53.422;7.670;2022-10-22T12:16:29;20.90;76.90
25108;DHT22;13090;53.422;7.670;2022-10-22T12:21:58;20.70;77.20
25108;DHT22;13090;53.422;7.670;2022-10-22T12:27:01;20.60;77.70
25108;DHT22;13090;53.422;7.670;2022-10-22T12:32:06;20.40;78.20
25108;DHT22;13090;53.422;7.670;2022-10-22T12:37:10;20.30;78.50
25108;DHT22;13090;53.422;7.670;2022-10-22T12:42:15;20.10;78.90
25108;DHT22;13090;53.422;7.670;2022-10-22T12:47:20;20.00;79.40
25108;DHT22;13090;53.422;7.670;2022-10-22T12:52:23;20.00;79.70
25108;DHT22;13090;53.422;7.670;2022-10-22T12:57:25;19.90;79.80
25108;DHT22;13090;53.422;7.670;2022-10-22T13:02:29;19.90;80.10
25108;DHT22;13090;53.422;7.670;2022-10-22T13:07:38;19.90;80.30
25108;DHT22;13090;53.422;7.670;2022-10-22T13:12:47;19.80;80.20
25108;DHT22;13090;53.422;7.670;2022-10-22T13:17:59;19.80;80.30
25108;DHT22;13090;53.422;7.670;2022-10-22T13:23:04;19.80;80.40
25108;DHT22;13090;53.422;7.670;2022-10-22T13:28:17;19.70;80.70
25108;DHT22;13090;53.422;7.670;2022-10-22T13:33:25;19.70;81.00
25108;DHT22;13090;53.422;7.670;2022-10-22T13:38:29;19.70;81.10
25108;DHT22;13090;53.422;7.670;2022-10-22T13:43:31;19.60;81.20
25108;DHT22;13090;53.422;7.670;2022-10-22T13:48:35;19.40;81.60
25108;DHT22;13090;53.422;7.670;2022-10-22T13:53:38;19.40;82.20
25108;DHT22;13090;53.422;7.670;2022-10-22T13:58:41;19.30;82.20
25108;DHT22;13090;53.422;7.670;2022-10-22T14:03:46;19.10;82.60
25108;DHT22;13090;53.422;7.670;2022-10-22T14:08:52;19.10;83.40
25108;DHT22;13090;53.422;7.670;2022-10-22T14:13:55;19.20;83.70
25108;DHT22;13090;53.422;7.670;2022-10-22T14:19:00;19.30;83.50
25108;DHT22;13090;53.422;7.670;2022-10-22T14:24:03;19.30;83.50
25108;DHT22;13090;53.422;7.670;2022-10-22T14:29:10;19.30;83.30
25108;DHT22;13090;53.422;7.670;2022-10-22T14:34:15;19.40;83.10
25108;DHT22;13090;53.422;7.670;2022-10-22T14:39:18;19.30;83.10
25108;DHT22;13090;53.422;7.670;2022-10-22T14:44:20;19.30;83.50
25108;DHT22;13090;53.422;7.670;2022-10-22T14:49:24;19.30;83.80
25108;DHT22;13090;53.422;7.670;2022-10-22T14:54:27;19.40;83.60
25108;DHT22;13090;53.422;7.670;2022-10-22T14:59:30;19.30;83.60
25108;DHT22;13090;53.422;7.670;2022-10-22T15:04:33;19.40;83.70
25108;DHT22;13090;53.422;7.670;2022-10-22T15:09:36;19.30;83.70
25108;DHT22;13090;53.422;7.670;2022-10-22T15:14:38;19.30;83.50
25108;DHT22;13090;53.422;7.670;2022-10-22T15:19:42;19.30;83.30
25108;DHT22;13090;53.422;7.670;2022-10-22T15:24:45;19.20;83.40
25108;DHT22;13090;53.422;7.670;2022-10-22T15:29:47;19.20;83.30
25108;DHT22;13090;53.422;7.670;2022-10-22T15:34:52;19.10;83.10
25108;DHT22;13090;53.422;7.670;2022-10-22T15:39:55;18.90;83.20
25108;DHT22;13090;53.422;7.670;2022-10-22T15:44:58;18.90;83.40
25108;DHT22;13090;53.422;7.670;2022-10-22T15:50:02;18.70;83.50
25108;DHT22;13090;53.422;7.670;2022-10-22T15:55:05;18.70;83.80
25108;DHT22;13090;53.422;7.670;2022-10-22T16:00:09;18.70;83.80
25108;DHT22;13090;53.422;7.670;2022-10-22T16:05:13;18.60;83.80
25108;DHT22;13090;53.422;7.670;2022-10-22T16:10:16;18.60;84.00
25108;DHT22;13090;53.422;7.670;2022-10-22T16:15:18;18.50;83.80
25108;DHT22;13090;53.422;7.670;2022-10-22T16:20:22;18.50;83.80
25108;DHT22;13090;53.422;7.670;2022-10-22T16:25:25;18.40;83.70
25108;DHT22;13090;53.422;7.670;2022-10-22T16:30:27;18.30;84.50
25108;DHT22;13090;53.422;7.670;2022-10-22T16:35:31;18.20;83.70
25108;DHT22;13090;53.422;7.670;2022-10-22T16:40:33;18.10;83.80
25108;DHT22;13090;53.422;7.670;2022-10-22T16:45:36;18.00;83.90
25108;DHT22;13090;53.422;7.670;2022-10-22T16:50:39;17.90;84.00
25108;DHT22;13090;53.422;7.670;2022-10-22T16:55:42;17.80;84.10
25108;DHT22;13090;53.422;7.670;2022-10-22T17:00:45;17.70;84.10
25108;DHT22;13090;53.422;7.670;2022-10-22T17:05:49;17.60;84.20
25108;DHT22;13090;53.422;7.670;2022-10-22T17:10:51;17.50;84.30
25108;DHT22;13090;53.422;7.670;2022-10-22T17:16:00;17.40;84.30
25108;DHT22;13090;53.422;7.670;2022-10-22T17:21:05;17.30;84.60
25108;DHT22;13090;53.422;7.670;2022-10-22T17:26:12;17.20;84.50
25108;DHT22;13090;53.422;7.670;2022-10-22T17:31:17;17.10;84.70
25108;DHT22;13090;53.422;7.670;2022-10-22T17:36:22;17.10;84.80
25108;DHT22;13090;53.422;7.670;2022-10-22T17:41:27;17.00;84.80
25108;DHT22;13090;53.422;7.670;2022-10-22T17:46:30;16.90;84.70
25108;DHT22;13090;53.422;7.670;2022-10-22T17:51:34;16.90;84.80
25108;DHT22;13090;53.422;7.670;2022-10-22T17:56:37;16.80;84.80
25108;DHT22;13090;53.422;7.670;2022-10-22T18:01:39;16.70;84.80
25108;DHT22;13090;53.422;7.670;2022-10-22T18:06:44;16.60;84.70
25108;DHT22;13090;53.422;7.670;2022-10-22T18:11:48;16.60;84.70
25108;DHT22;13090;53.422;7.670;2022-10-22T18:16:51;16.40;84.60
25108;DHT22;13090;53.422;7.670;2022-10-22T18:21:55;16.40;84.70
25108;DHT22;13090;53.422;7.670;2022-10-22T18:26:58;16.30;84.80
25108;DHT22;13090;53.422;7.670;2022-10-22T18:32:00;16.20;84.90
25108;DHT22;13090;53.422;7.670;2022-10-22T18:37:04;16.10;85.00
25108;DHT22;13090;53.422;7.670;2022-10-22T18:42:07;16.00;85.10
25108;DHT22;13090;53.422;7.670;2022-10-22T18:47:09;16.00;85.10
25108;DHT22;13090;53.422;7.670;2022-10-22T18:52:13;15.90;85.20
25108;DHT22;13090;53.422;7.670;2022-10-22T18:57:16;15.80;85.30
25108;DHT22;13090;53.422;7.670;2022-10-22T19:02:18;15.70;85.30
25108;DHT22;13090;53.422;7.670;2022-10-22T19:07:23;15.60;85.30
25108;DHT22;13090;53.422;7.670;2022-10-22T19:12:25;15.60;85.30
25108;DHT22;13090;53.422;7.670;2022-10-22T19:17:29;15.40;85.20
25108;DHT22;13090;53.422;7.670;2022-10-22T19:22:33;15.30;85.40
25108;DHT22;13090;53.422;7.670;2022-10-22T19:27:36;15.20;85.50
25108;DHT22;13090;53.422;7.670;2022-10-22T19:32:39;15.10;85.70
25108;DHT22;13090;53.422;7.670;2022-10-22T19:37:45;15.00;85.90
25108;DHT22;13090;53.422;7.670;2022-10-22T19:42:56;14.90;86.10
25108;DHT22;13090;53.422;7.670;2022-10-22T19:48:10;14.80;86.40
25108;DHT22;13090;53.422;7.670;2022-10-22T19:53:15;14.70;86.20
25108;DHT22;13090;53.422;7.670;2022-10-22T19:58:17;14.70;86.40
25108;DHT22;13090;53.422;7.670;2022-10-22T20:03:20;14.60;86.30
25108;DHT22;13090;53.422;7.670;2022-10-22T20:08:24;14.50;86.30
25108;DHT22;13090;53.422;7.670;2022-10-22T20:13:26;14.40;86.60
25108;DHT22;13090;53.422;7.670;2022-10-22T20:18:29;14.40;86.80
25108;DHT22;13090;53.422;7.670;2022-10-22T20:23:33;14.30;86.80
25108;DHT22;13090;53.422;7.670;2022-10-22T20:28:37;14.20;86.80
25108;DHT22;13090;53.422;7.670;2022-10-22T20:33:39;14.10;87.00
25108;DHT22;13090;53.422;7.670;2022-10-22T20:38:43;14.10;87.20
25108;DHT22;13090;53.422;7.670;2022-10-22T20:43:47;14.10;87.50
25108;DHT22;13090;53.422;7.670;2022-10-22T20:48:51;14.00;87.50
25108;DHT22;13090;53.422;7.670;2022-10-22T20:53:55;14.00;87.70
25108;DHT22;13090;53.422;7.670;2022-10-22T20:58:58;13.90;87.90
25108;DHT22;13090;53.422;7.670;2022-10-22T21:04:01;13.90;87.90
25108;DHT22;13090;53.422;7.670;2022-10-22T21:09:06;13.80;87.90
25108;DHT22;13090;53.422;7.670;2022-10-22T21:14:11;13.80;88.20
25108;DHT22;13090;53.422;7.670;2022-10-22T21:19:14;13.70;88.30
25108;DHT22;13090;53.422;7.670;2022-10-22T21:24:19;13.70;88.40
25108;DHT22;13090;53.422;7.670;2022-10-22T21:29:21;13.70;88.70
25108;DHT22;13090;53.422;7.670;2022-10-22T21:34:24;13.80;88.90
25108;DHT22;13090;53.422;7.670;2022-10-22T21:39:28;13.70;88.80
25108;DHT22;13090;53.422;7.670;2022-10-22T21:44:31;13.70;88.90
25108;DHT22;13090;53.422;7.670;2022-10-22T21:49:34;13.70;88.80
25108;DHT22;13090;53.422;7.670;2022-10-22T21:54:38;13.70;88.80
25108;DHT22;13090;53.422;7.670;2022-10-22T21:59:40;13.70;88.90
25108;DHT22;13090;53.422;7.670;2022-10-22T22:04:42;13.60;89.00
25108;DHT22;13090;53.422;7.670;2022-10-22T22:09:47;13.60;89.00
25108;DHT22;13090;53.422;7.670;2022-10-22T22:14:50;13.60;89.10
25108;DHT22;13090;53.422;7.670;2022-10-22T22:19:52;13.60;89.00
25108;DHT22;13090;53.422;7.670;2022-10-22T22:24:56;13.60;89.10
25108;DHT22;13090;53.422;7.670;2022-10-22T22:29:58;13.50;89.10
25108;DHT22;13090;53.422;7.670;2022-10-22T22:35:01;13.50;89.20
25108;DHT22;13090;53.422;7.670;2022-10-22T22:40:05;13.50;89.30
25108;DHT22;13090;53.422;7.670;2022-10-22T22:45:08;13.50;89.50
25108;DHT22;13090;53.422;7.670;2022-10-22T22:50:10;13.50;89.30
25108;DHT22;13090;53.422;7.670;2022-10-22T22:55:15;13.50;89.30
25108;DHT22;13090;53.422;7.670;2022-10-22T23:00:17;13.50;89.50
25108;DHT22;13090;53.422;7.670;2022-10-22T23:05:20;13.40;89.30
25108;DHT22;13090;53.422;7.670;2022-10-22T23:10:23;13.40;89.40
25108;DHT22;13090;53.422;7.670;2022-10-22T23:15:26;13.30;89.40
25108;DHT22;13090;53.422;7.670;2022-10-22T23:20:29;13.30;89.40
25108;DHT22;13090;53.422;7.670;2022-10-22T23:25:32;13.30;89.50
25108;DHT22;13090;53.422;7.670;2022-10-22T23:30:41;13.30;89.70
25108;DHT22;13090;53.422;7.670;2022-10-22T23:35:43;13.30;90.00
25108;DHT22;13090;53.422;7.670;2022-10-22T23:40:53;13.20;89.80
25108;DHT22;13090;53.422;7.670;2022-10-22T23:45:56;13.20;90.10
25108;DHT22;13090;53.422;7.670;2022-10-22T23:51:03;13.20;90.00
25108;DHT22;13090;53.422;7.670;2022-10-22T23:56:08;13.20;90.10
